Adger, AL

8:59 AM CST on November 13, 2019 (GMT -0600)
Pinewood Avenue | | Change Station
Active Advisory: Freeze Warning

Elev 600 ft 33.47 °N, 87.02 °W | Updated 12 seconds ago

Clear
Clear
31.6 °F
Feels Like 32 °F
N
2.91
Wind Variable Wind from SE
Gusts 4.9 mph

Today
High -- | Low -- °F
--% Chance of Precip.
Yesterday
High -- | Low -- °F
Precip. -- in
Pressure 30.38 in
Visibility 10.0 miles
Clouds Clear
Windchill 32 °F
Dew Point 17 °F
Humidity 55%
Rainfall 0.00 in
Snow Depth Not available.
6:18 AM 4:47 PM
Full, 99% visible
METAR KBHM 131453Z 10010KT 10SM CLR M01/M08 A3036 RMK AO2 SLP287 T10061078 50003
Pressure 30.38 in
Visibility 10.0 miles
Clouds Clear
Windchill 32 °F
Dew Point 17 °F
Humidity 55%
Rainfall 0.00 in
Snow Depth Not available.
6:18 AM 4:47 PM
Full, 99% visible
METAR KBHM 131453Z 10010KT 10SM CLR M01/M08 A3036 RMK AO2 SLP287 T10061078 50003

Get Your Daily Forecast Email!

Thanks for signing up!

Be on the lookout for a verification email in your inbox.

You'll start receiving severe weather alerts in your inbox..

×

10-Day Weather Forecast

Almanac

Astronomy

Nov. 13, 2019 Rise Set
Actual Time
Civil Twilight
Nautical Twilight
Astronomical Twilight
Moon
Length of Visible Light
Length of Day
Tomorrow will be .
, % of the Moon is Illuminated

Today's Extremes

State Highs State Lows

Community

WunderPhotos

Category 6

Welcome to Category 6. This is the collective home for Weather Underground's featured writeups by Dr. Jeff Masters (right), Bob Henson (left), Chris Burt, and other regular contributors.

Nearby

Air Quality

  Air Quality AQ Index Pollutant
Not available.

Snow Depth

Station Depth Elevation

Earthquake Activity

City Distance Mag. Time & Date
Minimum magnitude displayed is 2.5.

Coastal Water Temperatures

Place Temperature

Stations

Nearby Weather Stations

Station Location Temp. Windchill Dew Point Humidity Wind Precip. Elev Updated Type
                   

Watches & Warnings

Freeze Warning
Issued: 3:51 AM CST Nov. 13, 2019 – National Weather Service

... Freeze warning remains in effect until 10 am CST this
morning...

* what... sub-freezing temperatures between 16 and 25 degrees.

* Where... all of central Alabama.

* When... until 10 am CST Wednesday.

* Impacts... freeze conditions will kill crops, other sensitive
vegetation and possibly damage unprotected outdoor plumbing.

Precautionary/preparedness actions...

Take steps now to protect tender plants from the cold. To prevent
freezing and possible bursting of outdoor water pipes they should
be wrapped, drained, or allowed to drip slowly. Those that have
in-ground sprinkler systems should drain them and cover above-
ground pipes to protect them from freezing.